»·PEaware :: SWA4548 KAMA-KLAS

SWA4548 :: KAMA-KLAS

FLIGHT INFORMATION

Flight Status: Arrived
Operator:
Southwest Airlines
More flights by this operator :: More flights under this callsign
Pilot: Drew L. (13237)
Aircraft: BOEING 737-800
(B738)
More flights by this aircraft type
Origin: KAMA Amarillo Intl
United States
Destination: KLAS McCarran Intl
United States
More flights between these airports :: More routes between these airports
Route: +TCC J6 ABQ J72 PGS TYSSN5
File this flight plan on PilotEdge
Remarks: PBN / A1B1C1D1S1S2 DOF / 180506 REG / N806SB EET / KZLA0116 OPR / SWA PER / C RMK / TCAS SIMBRIEF
Altitude:
(Current/Filed)
34,000ft
Speed:
(Current/Filed)
454kts
Departed: 06-May-18 01:16 PM
Arrived: 06-May-18 03:02 PM
Distance/Time
Traveled:
657nm/1:46
Distance/Time
To Go:
Arrived

Flight Plot

Page will automatically refresh every two minutes.

Flight plan parsing failed; only flown route is shown


Map Options




Map Legend


Flown Route
Filed Route
Departure Airport
Arrival Airport
Navaid (VOR, NDB)
Fix

Horizontal Profiles

Position Reports

Time Latitude Longitude Heading Altitude Ground
Speed
06-May-18 12:48 35.219548 -101.705621 213 3613ft 0kts
06-May-18 12:49 35.219548 -101.705621 213 3613ft 0kts
06-May-18 12:50 35.219548 -101.705621 213 3613ft 0kts
06-May-18 12:51 35.219548 -101.705621 213 3613ft 0kts
06-May-18 12:52 35.219548 -101.705621 213 3613ft 0kts
06-May-18 12:53 35.219548 -101.705621 213 3613ft 0kts
06-May-18 12:54 35.219548 -101.705621 213 3613ft 0kts
06-May-18 12:55 35.219548 -101.705621 213 3613ft 0kts
06-May-18 12:56 35.219548 -101.705621 213 3613ft 0kts
06-May-18 12:57 35.219548 -101.705621 213 3613ft 0kts
06-May-18 12:58 35.219548 -101.705621 213 3613ft 0kts
06-May-18 12:58 35.219548 -101.705621 213 3613ft 0kts
06-May-18 12:59 35.219548 -101.705621 213 3613ft 0kts
06-May-18 13:00 35.219548 -101.705621 213 3613ft 0kts
06-May-18 13:01 35.219548 -101.705621 213 3613ft 0kts
06-May-18 13:02 35.219548 -101.705621 213 3613ft 0kts
06-May-18 13:03 35.219548 -101.705621 213 3613ft 0kts
06-May-18 13:04 35.219548 -101.705621 213 3613ft 0kts
06-May-18 13:05 35.219737 -101.705457 217 3613ft 2kts
06-May-18 13:06 35.220184 -101.704984 226 3613ft 0kts
06-May-18 13:07 35.220208 -101.704954 227 3613ft 0kts
06-May-18 13:08 35.220140 -101.705075 239 3613ft 5kts
06-May-18 13:09 35.221101 -101.705274 16 3613ft 2kts
06-May-18 13:10 35.224123 -101.703504 45 3613ft 18kts
06-May-18 13:11 35.228927 -101.698239 334 3613ft 19kts
06-May-18 13:12 35.229783 -101.699145 317 3613ft 0kts
06-May-18 13:13 35.229783 -101.699145 317 3613ft 0kts
06-May-18 13:14 35.230201 -101.701081 221 3613ft 21kts
06-May-18 13:15 35.208761 -101.728503 225 3831ft 174kts
06-May-18 13:16 35.173932 -101.772492 223 5830ft 186kts
06-May-18 13:17 35.135138 -101.819241 223 7694ft 210kts
06-May-18 13:18 35.093125 -101.874122 247 9562ft 237kts
06-May-18 13:19 35.089882 -101.961444 268 11047ft 286kts
06-May-18 13:20 35.090871 -102.066404 269 12648ft 327kts
06-May-18 13:21 35.091898 -102.178315 269 15369ft 335kts
06-May-18 13:22 35.092846 -102.293178 269 18139ft 342kts
06-May-18 13:23 35.093700 -102.409998 269 20587ft 349kts
06-May-18 13:24 35.094466 -102.529565 270 22773ft 356kts
06-May-18 13:25 35.095141 -102.651668 270 24722ft 364kts
06-May-18 13:27 35.095638 -102.776446 271 26491ft 372kts
06-May-18 13:28 35.096016 -102.903698 271 28093ft 379kts
06-May-18 13:29 35.096290 -103.033391 272 29488ft 388kts
06-May-18 13:30 35.096433 -103.165457 272 31060ft 389kts
06-May-18 13:31 35.096437 -103.296481 273 32577ft 386kts
06-May-18 13:32 35.096308 -103.426808 273 33939ft 382kts
06-May-18 13:33 35.096134 -103.561304 273 34018ft 412kts
06-May-18 13:34 35.095736 -103.703176 272 34015ft 421kts
06-May-18 13:35 35.095071 -103.846387 272 34013ft 421kts
06-May-18 13:36 35.094254 -103.989100 272 34017ft 421kts
06-May-18 13:37 35.093285 -104.131694 272 34026ft 421kts
06-May-18 13:38 35.092157 -104.274842 272 34028ft 421kts
06-May-18 13:39 35.090876 -104.417374 272 34246ft 422kts
06-May-18 13:40 35.089439 -104.560330 272 34253ft 421kts
06-May-18 13:41 35.087832 -104.702559 272 34262ft 421kts
06-May-18 13:42 35.086292 -104.822813 272 34264ft 421kts
06-May-18 13:43 35.084338 -104.964914 272 34267ft 420kts
06-May-18 13:44 35.082249 -105.106742 271 34287ft 418kts
06-May-18 13:45 35.079995 -105.248444 271 34330ft 417kts
06-May-18 13:46 35.077594 -105.389484 271 34383ft 417kts
06-May-18 13:47 35.075032 -105.531058 271 34388ft 417kts
06-May-18 13:48 35.072329 -105.671763 270 34396ft 417kts
06-May-18 13:49 35.069369 -105.813387 270 34396ft 417kts
06-May-18 13:50 35.066263 -105.954739 270 34381ft 417kts
06-May-18 13:51 35.063002 -106.095209 270 34360ft 418kts
06-May-18 13:52 35.059719 -106.231355 270 34352ft 418kts
06-May-18 13:53 35.056139 -106.373221 270 34347ft 418kts
06-May-18 13:54 35.052414 -106.514703 270 34346ft 418kts
06-May-18 13:55 35.048543 -106.654987 270 34352ft 418kts
06-May-18 13:56 35.044397 -106.795939 270 34376ft 417kts
06-May-18 13:57 35.067850 -106.933688 285 34377ft 417kts
06-May-18 13:58 35.098188 -107.070554 285 34374ft 420kts
06-May-18 13:59 35.128438 -107.207934 285 34371ft 420kts
06-May-18 14:00 35.158526 -107.345873 285 34375ft 420kts
06-May-18 14:01 35.187852 -107.483660 285 34372ft 419kts
06-May-18 14:02 35.216410 -107.621603 284 34372ft 420kts
06-May-18 14:03 35.244713 -107.759873 284 34378ft 420kts
06-May-18 14:04 35.273190 -107.898718 284 34373ft 420kts
06-May-18 14:05 35.301647 -108.036733 284 34378ft 420kts
06-May-18 14:06 35.330372 -108.175401 284 34375ft 420kts
06-May-18 14:07 35.359212 -108.313789 284 34371ft 420kts
06-May-18 14:08 35.388197 -108.452249 285 34374ft 420kts
06-May-18 14:09 35.417362 -108.590902 285 34371ft 420kts
06-May-18 14:10 35.446123 -108.727078 284 34374ft 420kts
06-May-18 14:11 35.475404 -108.865272 285 34376ft 420kts
06-May-18 14:12 35.484792 -109.007988 273 34377ft 421kts
06-May-18 14:13 35.490179 -109.151085 273 34382ft 419kts
06-May-18 14:14 35.495976 -109.287643 272 34385ft 419kts
06-May-18 14:15 35.502240 -109.429646 273 34373ft 417kts
06-May-18 14:16 35.508659 -109.571107 273 34369ft 417kts
06-May-18 14:17 35.514364 -109.694333 272 34379ft 417kts
06-May-18 14:18 35.518930 -109.791970 272 34376ft 417kts
06-May-18 14:19 35.525695 -109.933268 272 34375ft 417kts
06-May-18 14:20 35.532500 -110.072688 272 34299ft 417kts
06-May-18 14:21 35.537812 -110.214774 272 34236ft 417kts
06-May-18 14:22 35.542467 -110.356684 272 34235ft 417kts
06-May-18 14:23 35.546917 -110.495216 272 34233ft 417kts
06-May-18 14:24 35.551590 -110.637668 272 34232ft 417kts
06-May-18 14:25 35.556280 -110.778139 271 34240ft 417kts
06-May-18 14:26 35.561208 -110.920199 272 34239ft 416kts
06-May-18 14:27 35.566266 -111.061077 271 34237ft 414kts
06-May-18 14:28 35.571451 -111.201232 271 34276ft 413kts
06-May-18 14:29 35.576797 -111.341892 271 34367ft 413kts
06-May-18 14:30 35.582166 -111.479413 272 34388ft 413kts
06-May-18 14:31 35.585515 -111.619547 270 34387ft 412kts
06-May-18 14:32 35.588044 -111.756953 270 34373ft 412kts
06-May-18 14:33 35.590752 -111.894895 271 34356ft 413kts
06-May-18 14:34 35.594925 -112.032578 271 34355ft 412kts
06-May-18 14:35 35.599178 -112.173353 271 34355ft 413kts
06-May-18 14:36 35.603453 -112.313840 271 34354ft 413kts
06-May-18 14:37 35.607142 -112.454772 270 34354ft 412kts
06-May-18 14:38 35.609495 -112.593787 270 34351ft 412kts
06-May-18 14:39 35.611559 -112.733121 270 34361ft 412kts
06-May-18 14:40 35.613639 -112.872597 270 34356ft 411kts
06-May-18 14:41 35.615871 -113.012440 270 34348ft 408kts
06-May-18 14:42 35.618250 -113.152027 270 34127ft 410kts
06-May-18 14:43 35.620863 -113.295461 270 31159ft 427kts
06-May-18 14:44 35.623596 -113.437362 269 27787ft 431kts
06-May-18 14:45 35.635010 -113.585198 285 24208ft 451kts
06-May-18 14:46 35.669984 -113.718703 284 24137ft 412kts
06-May-18 14:47 35.704586 -113.851238 284 24139ft 411kts
06-May-18 14:48 35.739366 -113.985113 284 24138ft 412kts
06-May-18 14:49 35.774029 -114.119249 284 24079ft 413kts
06-May-18 14:50 35.808584 -114.253518 284 21971ft 403kts
06-May-18 14:51 35.841801 -114.382441 287 19168ft 393kts
06-May-18 14:52 35.921887 -114.468665 336 16480ft 398kts
06-May-18 14:53 36.017475 -114.524932 311 12174ft 371kts
06-May-18 14:54 36.049447 -114.623520 281 12002ft 282kts
06-May-18 14:55 36.068907 -114.714734 281 10712ft 275kts
06-May-18 14:56 36.073664 -114.798907 265 9106ft 237kts
06-May-18 14:57 36.073399 -114.866324 266 7205ft 219kts
06-May-18 14:58 36.073550 -114.939063 267 5356ft 200kts
06-May-18 14:59 36.073616 -115.001781 267 4514ft 174kts
06-May-18 15:00 36.073701 -115.061083 269 3544ft 175kts
06-May-18 15:01 36.073663 -115.117839 270 2376ft 163kts
06-May-18 15:02 36.074727 -115.150546 300 2189ft 10kts
06-May-18 15:03 36.077951 -115.152112 23 2188ft 25kts
06-May-18 15:03 36.081590 -115.148153 64 2188ft 0kts

Navigation Log

Ident Type
Flight plan parsing failed, navigation log unavailable